sensor_id;sensor_type;location;lat;lon;timestamp;temperature;humidity
4429;DHT22;2227;47.810;8.810;2022-11-03T04:47:15;4.80;99.90
4429;DHT22;2227;47.810;8.810;2022-11-03T04:49:43;4.80;99.90
4429;DHT22;2227;47.810;8.810;2022-11-03T04:52:20;4.80;99.90
4429;DHT22;2227;47.810;8.810;2022-11-03T04:54:49;4.80;99.90
4429;DHT22;2227;47.810;8.810;2022-11-03T04:57:18;4.70;99.90
4429;DHT22;2227;47.810;8.810;2022-11-03T04:59:47;4.70;99.90
4429;DHT22;2227;47.810;8.810;2022-11-03T05:02:18;4.70;99.90
4429;DHT22;2227;47.810;8.810;2022-11-03T05:04:45;4.70;99.90
4429;DHT22;2227;47.810;8.810;2022-11-03T05:09:48;4.70;99.90
4429;DHT22;2227;47.810;8.810;2022-11-03T05:12:15;4.70;99.90
4429;DHT22;2227;47.810;8.810;2022-11-03T05:14:42;4.70;99.90
4429;DHT22;2227;47.810;8.810;2022-11-03T05:17:23;4.70;99.90
4429;DHT22;2227;47.810;8.810;2022-11-03T05:20:01;4.80;99.90
4429;DHT22;2227;47.810;8.810;2022-11-03T05:22:33;4.70;99.90
4429;DHT22;2227;47.810;8.810;2022-11-03T05:27:45;4.80;99.90
4429;DHT22;2227;47.810;8.810;2022-11-03T05:30:13;4.80;99.90
4429;DHT22;2227;47.810;8.810;2022-11-03T05:32:40;4.80;99.90
4429;DHT22;2227;47.810;8.810;2022-11-03T05:35:19;4.80;99.90
4429;DHT22;2227;47.810;8.810;2022-11-03T05:37:46;4.90;99.90
4429;DHT22;2227;47.810;8.810;2022-11-03T05:40:24;4.90;99.90
4429;DHT22;2227;47.810;8.810;2022-11-03T05:42:59;5.00;99.90
4429;DHT22;2227;47.810;8.810;2022-11-03T05:45:32;5.00;99.90
4429;DHT22;2227;47.810;8.810;2022-11-03T05:48:01;5.00;99.90
4429;DHT22;2227;47.810;8.810;2022-11-03T05:50:32;4.80;99.90
4429;DHT22;2227;47.810;8.810;2022-11-03T05:53:31;4.90;99.90
4429;DHT22;2227;47.810;8.810;2022-11-03T05:56:03;4.90;99.90
4429;DHT22;2227;47.810;8.810;2022-11-03T05:58:34;4.90;99.90
4429;DHT22;2227;47.810;8.810;2022-11-03T06:03:44;5.00;99.90
4429;DHT22;2227;47.810;8.810;2022-11-03T06:06:25;5.10;99.90
4429;DHT22;2227;47.810;8.810;2022-11-03T06:09:03;5.20;99.90
4429;DHT22;2227;47.810;8.810;2022-11-03T06:11:35;5.20;99.90
4429;DHT22;2227;47.810;8.810;2022-11-03T06:14:18;5.20;99.90
4429;DHT22;2227;47.810;8.810;2022-11-03T06:17:09;5.30;99.90
4429;DHT22;2227;47.810;8.810;2022-11-03T06:19:40;5.20;99.90
4429;DHT22;2227;47.810;8.810;2022-11-03T06:22:26;5.20;99.90
4429;DHT22;2227;47.810;8.810;2022-11-03T06:24:59;5.20;99.90
4429;DHT22;2227;47.810;8.810;2022-11-03T06:27:29;5.20;99.90
4429;DHT22;2227;47.810;8.810;2022-11-03T06:29:58;5.20;99.90
4429;DHT22;2227;47.810;8.810;2022-11-03T06:32:26;5.30;99.90
4429;DHT22;2227;47.810;8.810;2022-11-03T06:34:57;5.30;99.90
4429;DHT22;2227;47.810;8.810;2022-11-03T06:37:29;5.40;99.90
4429;DHT22;2227;47.810;8.810;2022-11-03T06:40:02;5.50;99.90
4429;DHT22;2227;47.810;8.810;2022-11-03T06:42:37;5.60;99.90
4429;DHT22;2227;47.810;8.810;2022-11-03T06:45:25;5.60;99.90
4429;DHT22;2227;47.810;8.810;2022-11-03T06:47:52;5.60;99.90
4429;DHT22;2227;47.810;8.810;2022-11-03T06:50:30;5.60;99.90
4429;DHT22;2227;47.810;8.810;2022-11-03T06:53:01;5.80;99.90
4429;DHT22;2227;47.810;8.810;2022-11-03T06:55:32;5.80;99.90
4429;DHT22;2227;47.810;8.810;2022-11-03T06:58:13;5.90;99.90
4429;DHT22;2227;47.810;8.810;2022-11-03T07:00:41;5.90;99.90
4429;DHT22;2227;47.810;8.810;2022-11-03T07:03:27;6.00;99.90
4429;DHT22;2227;47.810;8.810;2022-11-03T07:06:19;6.10;99.90
4429;DHT22;2227;47.810;8.810;2022-11-03T07:08:47;6.10;99.90
4429;DHT22;2227;47.810;8.810;2022-11-03T07:11:18;6.20;99.90
4429;DHT22;2227;47.810;8.810;2022-11-03T07:16:44;6.30;99.90
4429;DHT22;2227;47.810;8.810;2022-11-03T07:19:26;6.30;99.90
4429;DHT22;2227;47.810;8.810;2022-11-03T07:22:01;6.30;99.90
4429;DHT22;2227;47.810;8.810;2022-11-03T07:24:35;6.30;99.90
4429;DHT22;2227;47.810;8.810;2022-11-03T07:30:05;6.50;99.90
4429;DHT22;2227;47.810;8.810;2022-11-03T07:32:37;6.60;99.90
4429;DHT22;2227;47.810;8.810;2022-11-03T07:37:45;6.80;99.90
4429;DHT22;2227;47.810;8.810;2022-11-03T07:40:21;6.80;99.90
4429;DHT22;2227;47.810;8.810;2022-11-03T07:42:56;7.00;99.90
4429;DHT22;2227;47.810;8.810;2022-11-03T07:50:51;7.20;99.90
4429;DHT22;2227;47.810;8.810;2022-11-03T07:55:53;7.40;99.90
4429;DHT22;2227;47.810;8.810;2022-11-03T07:58:24;7.50;99.90
4429;DHT22;2227;47.810;8.810;2022-11-03T08:00:54;7.50;99.90
4429;DHT22;2227;47.810;8.810;2022-11-03T08:03:34;7.60;99.90
4429;DHT22;2227;47.810;8.810;2022-11-03T08:06:01;7.70;99.90
4429;DHT22;2227;47.810;8.810;2022-11-03T08:08:32;7.70;99.90
4429;DHT22;2227;47.810;8.810;2022-11-03T08:10:59;7.80;99.90
4429;DHT22;2227;47.810;8.810;2022-11-03T08:13:26;7.90;99.90
4429;DHT22;2227;47.810;8.810;2022-11-03T08:15:53;7.80;99.90
4429;DHT22;2227;47.810;8.810;2022-11-03T08:18:19;7.90;99.90
4429;DHT22;2227;47.810;8.810;2022-11-03T08:20:46;7.90;99.90
4429;DHT22;2227;47.810;8.810;2022-11-03T08:23:13;8.00;99.90
4429;DHT22;2227;47.810;8.810;2022-11-03T08:25:55;8.10;99.90
4429;DHT22;2227;47.810;8.810;2022-11-03T08:28:22;8.20;99.90
4429;DHT22;2227;47.810;8.810;2022-11-03T08:30:48;8.20;99.90
4429;DHT22;2227;47.810;8.810;2022-11-03T08:33:15;8.30;99.90
4429;DHT22;2227;47.810;8.810;2022-11-03T08:35:42;8.30;99.90
4429;DHT22;2227;47.810;8.810;2022-11-03T08:38:09;8.40;99.90
4429;DHT22;2227;47.810;8.810;2022-11-03T08:40:36;8.40;99.90
4429;DHT22;2227;47.810;8.810;2022-11-03T08:43:02;8.40;99.90
4429;DHT22;2227;47.810;8.810;2022-11-03T08:45:30;8.50;99.90
4429;DHT22;2227;47.810;8.810;2022-11-03T08:47:57;8.50;99.90
4429;DHT22;2227;47.810;8.810;2022-11-03T08:50:23;8.50;99.90
4429;DHT22;2227;47.810;8.810;2022-11-03T08:52:50;8.60;99.90
4429;DHT22;2227;47.810;8.810;2022-11-03T08:55:17;8.70;99.90
4429;DHT22;2227;47.810;8.810;2022-11-03T08:57:44;8.70;99.90
4429;DHT22;2227;47.810;8.810;2022-11-03T09:00:11;8.80;99.90
4429;DHT22;2227;47.810;8.810;2022-11-03T09:02:38;8.80;99.90
4429;DHT22;2227;47.810;8.810;2022-11-03T09:05:05;8.90;99.90
4429;DHT22;2227;47.810;8.810;2022-11-03T09:07:33;9.00;99.90
4429;DHT22;2227;47.810;8.810;2022-11-03T09:10:19;9.00;99.90
4429;DHT22;2227;47.810;8.810;2022-11-03T09:12:53;9.10;99.90
4429;DHT22;2227;47.810;8.810;2022-11-03T09:15:20;9.20;99.90
4429;DHT22;2227;47.810;8.810;2022-11-03T09:17:47;9.30;99.90
4429;DHT22;2227;47.810;8.810;2022-11-03T09:20:14;9.40;99.90
4429;DHT22;2227;47.810;8.810;2022-11-03T09:22:41;9.50;99.90
4429;DHT22;2227;47.810;8.810;2022-11-03T09:25:08;9.50;99.90
4429;DHT22;2227;47.810;8.810;2022-11-03T09:27:35;9.50;99.90
4429;DHT22;2227;47.810;8.810;2022-11-03T09:30:03;9.50;99.90
4429;DHT22;2227;47.810;8.810;2022-11-03T09:32:39;9.50;99.90
4429;DHT22;2227;47.810;8.810;2022-11-03T09:35:07;9.50;99.90
4429;DHT22;2227;47.810;8.810;2022-11-03T09:37:35;9.60;99.90
4429;DHT22;2227;47.810;8.810;2022-11-03T09:40:02;9.60;99.90
4429;DHT22;2227;47.810;8.810;2022-11-03T09:42:31;9.40;99.90
4429;DHT22;2227;47.810;8.810;2022-11-03T09:45:00;9.30;99.90
4429;DHT22;2227;47.810;8.810;2022-11-03T09:47:34;9.10;99.90
4429;DHT22;2227;47.810;8.810;2022-11-03T09:50:01;9.10;99.90
4429;DHT22;2227;47.810;8.810;2022-11-03T09:52:30;9.10;99.90
4429;DHT22;2227;47.810;8.810;2022-11-03T09:54:56;9.10;99.90
4429;DHT22;2227;47.810;8.810;2022-11-03T09:57:28;9.00;99.90
4429;DHT22;2227;47.810;8.810;2022-11-03T09:59:55;8.90;99.90
4429;DHT22;2227;47.810;8.810;2022-11-03T10:02:26;8.90;99.90
4429;DHT22;2227;47.810;8.810;2022-11-03T10:04:55;8.90;99.90
4429;DHT22;2227;47.810;8.810;2022-11-03T10:07:25;8.80;99.90
4429;DHT22;2227;47.810;8.810;2022-11-03T10:09:53;8.70;99.90
4429;DHT22;2227;47.810;8.810;2022-11-03T10:12:23;8.80;99.90
4429;DHT22;2227;47.810;8.810;2022-11-03T10:14:50;8.90;99.90
4429;DHT22;2227;47.810;8.810;2022-11-03T10:17:19;9.10;99.90
4429;DHT22;2227;47.810;8.810;2022-11-03T10:19:51;9.20;99.90
4429;DHT22;2227;47.810;8.810;2022-11-03T10:22:19;9.30;99.90
4429;DHT22;2227;47.810;8.810;2022-11-03T10:24:46;9.30;99.90
4429;DHT22;2227;47.810;8.810;2022-11-03T10:27:24;9.30;99.90
4429;DHT22;2227;47.810;8.810;2022-11-03T10:30:06;9.40;99.90
4429;DHT22;2227;47.810;8.810;2022-11-03T10:32:33;9.40;99.90
4429;DHT22;2227;47.810;8.810;2022-11-03T10:37:46;9.50;99.90
4429;DHT22;2227;47.810;8.810;2022-11-03T10:40:34;9.60;99.90
4429;DHT22;2227;47.810;8.810;2022-11-03T10:43:13;9.80;99.90
4429;DHT22;2227;47.810;8.810;2022-11-03T10:45:41;9.70;99.90
4429;DHT22;2227;47.810;8.810;2022-11-03T10:48:09;9.80;99.90
4429;DHT22;2227;47.810;8.810;2022-11-03T10:50:39;9.80;99.90
4429;DHT22;2227;47.810;8.810;2022-11-03T10:53:17;10.00;99.90
4429;DHT22;2227;47.810;8.810;2022-11-03T10:55:46;10.10;99.90
4429;DHT22;2227;47.810;8.810;2022-11-03T10:58:12;10.00;99.90
4429;DHT22;2227;47.810;8.810;2022-11-03T11:00:40;10.00;99.90
4429;DHT22;2227;47.810;8.810;2022-11-03T11:03:10;10.00;99.90
4429;DHT22;2227;47.810;8.810;2022-11-03T11:05:46;9.90;99.90
4429;DHT22;2227;47.810;8.810;2022-11-03T11:08:19;9.90;99.90
4429;DHT22;2227;47.810;8.810;2022-11-03T11:10:47;9.90;99.90
4429;DHT22;2227;47.810;8.810;2022-11-03T11:15:54;9.80;99.90
4429;DHT22;2227;47.810;8.810;2022-11-03T11:20:58;9.80;99.90
4429;DHT22;2227;47.810;8.810;2022-11-03T11:28:44;9.80;99.90
4429;DHT22;2227;47.810;8.810;2022-11-03T11:31:31;9.70;99.90
4429;DHT22;2227;47.810;8.810;2022-11-03T11:36:39;9.60;99.90
4429;DHT22;2227;47.810;8.810;2022-11-03T11:47:23;9.30;99.90
4429;DHT22;2227;47.810;8.810;2022-11-03T11:52:38;9.50;99.90
4429;DHT22;2227;47.810;8.810;2022-11-03T11:57:52;9.60;99.90
4429;DHT22;2227;47.810;8.810;2022-11-03T12:00:25;9.60;99.90
4429;DHT22;2227;47.810;8.810;2022-11-03T12:02:52;9.70;99.90
4429;DHT22;2227;47.810;8.810;2022-11-03T12:05:22;9.80;99.90
4429;DHT22;2227;47.810;8.810;2022-11-03T12:07:50;10.00;99.90
4429;DHT22;2227;47.810;8.810;2022-11-03T12:10:30;10.10;99.90
4429;DHT22;2227;47.810;8.810;2022-11-03T12:12:59;10.20;99.90
4429;DHT22;2227;47.810;8.810;2022-11-03T12:15:48;10.30;99.90
4429;DHT22;2227;47.810;8.810;2022-11-03T12:21:10;10.50;99.90
4429;DHT22;2227;47.810;8.810;2022-11-03T12:23:55;10.50;99.90
4429;DHT22;2227;47.810;8.810;2022-11-03T12:28:54;10.60;99.90
4429;DHT22;2227;47.810;8.810;2022-11-03T12:31:21;10.60;99.90
4429;DHT22;2227;47.810;8.810;2022-11-03T12:33:48;10.60;99.90
4429;DHT22;2227;47.810;8.810;2022-11-03T12:36:14;10.60;99.90
4429;DHT22;2227;47.810;8.810;2022-11-03T12:38:41;10.70;99.90
4429;DHT22;2227;47.810;8.810;2022-11-03T12:41:08;10.70;99.90
4429;DHT22;2227;47.810;8.810;2022-11-03T12:43:47;10.80;99.90
4429;DHT22;2227;47.810;8.810;2022-11-03T12:46:16;10.90;99.90
4429;DHT22;2227;47.810;8.810;2022-11-03T12:48:43;10.90;99.90
4429;DHT22;2227;47.810;8.810;2022-11-03T12:51:11;10.80;99.90
4429;DHT22;2227;47.810;8.810;2022-11-03T12:53:39;10.80;99.90
4429;DHT22;2227;47.810;8.810;2022-11-03T12:56:07;10.70;99.90
4429;DHT22;2227;47.810;8.810;2022-11-03T12:58:34;10.80;99.90
4429;DHT22;2227;47.810;8.810;2022-11-03T13:01:02;10.70;99.90
4429;DHT22;2227;47.810;8.810;2022-11-03T13:03:29;10.70;99.90
4429;DHT22;2227;47.810;8.810;2022-11-03T13:05:57;10.70;99.90
4429;DHT22;2227;47.810;8.810;2022-11-03T13:08:24;10.70;99.90
4429;DHT22;2227;47.810;8.810;2022-11-03T13:10:51;10.70;99.90
4429;DHT22;2227;47.810;8.810;2022-11-03T13:13:18;10.80;99.90
4429;DHT22;2227;47.810;8.810;2022-11-03T13:15:45;10.90;99.90
4429;DHT22;2227;47.810;8.810;2022-11-03T13:18:12;10.90;99.90
4429;DHT22;2227;47.810;8.810;2022-11-03T13:20:41;11.00;99.90
4429;DHT22;2227;47.810;8.810;2022-11-03T13:23:08;11.00;99.90
4429;DHT22;2227;47.810;8.810;2022-11-03T13:25:35;11.00;99.90
4429;DHT22;2227;47.810;8.810;2022-11-03T13:28:02;11.10;99.90
4429;DHT22;2227;47.810;8.810;2022-11-03T13:30:30;11.10;99.90
4429;DHT22;2227;47.810;8.810;2022-11-03T13:32:59;11.10;99.90
4429;DHT22;2227;47.810;8.810;2022-11-03T13:35:25;11.00;99.90
4429;DHT22;2227;47.810;8.810;2022-11-03T13:37:52;11.00;99.90
4429;DHT22;2227;47.810;8.810;2022-11-03T13:40:19;11.10;99.90
4429;DHT22;2227;47.810;8.810;2022-11-03T13:43:05;11.10;99.90
4429;DHT22;2227;47.810;8.810;2022-11-03T13:45:33;11.00;99.90
4429;DHT22;2227;47.810;8.810;2022-11-03T13:47:59;11.10;99.90
4429;DHT22;2227;47.810;8.810;2022-11-03T13:50:46;11.10;99.90
4429;DHT22;2227;47.810;8.810;2022-11-03T13:53:16;11.10;99.90
4429;DHT22;2227;47.810;8.810;2022-11-03T13:56:04;11.10;99.90
4429;DHT22;2227;47.810;8.810;2022-11-03T13:58:35;11.00;99.90
4429;DHT22;2227;47.810;8.810;2022-11-03T14:01:22;11.00;99.90
4429;DHT22;2227;47.810;8.810;2022-11-03T14:03:49;10.90;99.90
4429;DHT22;2227;47.810;8.810;2022-11-03T14:06:36;10.90;99.90
4429;DHT22;2227;47.810;8.810;2022-11-03T14:09:02;10.90;99.90
4429;DHT22;2227;47.810;8.810;2022-11-03T14:11:29;11.00;99.90
4429;DHT22;2227;47.810;8.810;2022-11-03T14:14:14;11.00;99.90
4429;DHT22;2227;47.810;8.810;2022-11-03T14:16:41;11.10;99.90
4429;DHT22;2227;47.810;8.810;2022-11-03T14:19:08;11.10;99.90
4429;DHT22;2227;47.810;8.810;2022-11-03T14:21:34;11.10;99.90
4429;DHT22;2227;47.810;8.810;2022-11-03T14:24:06;11.00;99.90
4429;DHT22;2227;47.810;8.810;2022-11-03T14:26:32;11.00;99.90
4429;DHT22;2227;47.810;8.810;2022-11-03T14:29:09;10.80;99.90
4429;DHT22;2227;47.810;8.810;2022-11-03T14:31:36;10.60;99.90
4429;DHT22;2227;47.810;8.810;2022-11-03T14:34:02;10.60;99.90
4429;DHT22;2227;47.810;8.810;2022-11-03T14:36:29;10.60;99.90
4429;DHT22;2227;47.810;8.810;2022-11-03T14:38:56;10.60;99.90
4429;DHT22;2227;47.810;8.810;2022-11-03T14:41:23;10.60;99.90
4429;DHT22;2227;47.810;8.810;2022-11-03T14:44:08;10.60;99.90
4429;DHT22;2227;47.810;8.810;2022-11-03T14:46:35;10.70;99.90
4429;DHT22;2227;47.810;8.810;2022-11-03T14:49:02;10.70;99.90
4429;DHT22;2227;47.810;8.810;2022-11-03T14:51:29;10.70;99.90
4429;DHT22;2227;47.810;8.810;2022-11-03T14:53:56;10.70;99.90
4429;DHT22;2227;47.810;8.810;2022-11-03T14:56:23;10.70;99.90
4429;DHT22;2227;47.810;8.810;2022-11-03T14:58:51;10.80;99.90
4429;DHT22;2227;47.810;8.810;2022-11-03T15:01:18;10.80;99.90
4429;DHT22;2227;47.810;8.810;2022-11-03T15:03:45;10.80;99.90
4429;DHT22;2227;47.810;8.810;2022-11-03T15:06:12;10.90;99.90
4429;DHT22;2227;47.810;8.810;2022-11-03T15:08:38;10.90;99.90
4429;DHT22;2227;47.810;8.810;2022-11-03T15:11:06;10.90;99.90
4429;DHT22;2227;47.810;8.810;2022-11-03T15:13:33;10.90;99.90
4429;DHT22;2227;47.810;8.810;2022-11-03T15:16:11;10.80;99.90
4429;DHT22;2227;47.810;8.810;2022-11-03T15:18:38;10.70;99.90
4429;DHT22;2227;47.810;8.810;2022-11-03T15:21:05;10.80;99.90
4429;DHT22;2227;47.810;8.810;2022-11-03T15:23:31;10.80;99.90
4429;DHT22;2227;47.810;8.810;2022-11-03T15:26:18;10.80;99.90
4429;DHT22;2227;47.810;8.810;2022-11-03T15:28:45;10.60;99.90
4429;DHT22;2227;47.810;8.810;2022-11-03T15:31:11;10.60;99.90
4429;DHT22;2227;47.810;8.810;2022-11-03T15:33:38;10.50;99.90
4429;DHT22;2227;47.810;8.810;2022-11-03T15:36:05;10.50;99.90
4429;DHT22;2227;47.810;8.810;2022-11-03T15:38:33;10.40;99.90
4429;DHT22;2227;47.810;8.810;2022-11-03T15:41:00;10.40;99.90
4429;DHT22;2227;47.810;8.810;2022-11-03T15:43:48;10.40;99.90
4429;DHT22;2227;47.810;8.810;2022-11-03T15:46:16;10.50;99.90
4429;DHT22;2227;47.810;8.810;2022-11-03T15:48:44;10.50;99.90
4429;DHT22;2227;47.810;8.810;2022-11-03T15:51:11;10.40;99.90
4429;DHT22;2227;47.810;8.810;2022-11-03T15:53:38;10.40;99.90
4429;DHT22;2227;47.810;8.810;2022-11-03T15:56:05;10.40;99.90
4429;DHT22;2227;47.810;8.810;2022-11-03T15:58:32;10.50;99.90
4429;DHT22;2227;47.810;8.810;2022-11-03T16:01:01;10.50;99.90
4429;DHT22;2227;47.810;8.810;2022-11-03T16:03:29;10.60;99.90
4429;DHT22;2227;47.810;8.810;2022-11-03T16:05:57;10.60;99.90
4429;DHT22;2227;47.810;8.810;2022-11-03T16:08:24;10.60;99.90
4429;DHT22;2227;47.810;8.810;2022-11-03T16:10:51;10.60;99.90
4429;DHT22;2227;47.810;8.810;2022-11-03T16:13:24;10.60;99.90
4429;DHT22;2227;47.810;8.810;2022-11-03T16:15:51;10.50;99.90
4429;DHT22;2227;47.810;8.810;2022-11-03T16:18:20;10.50;99.90
4429;DHT22;2227;47.810;8.810;2022-11-03T16:20:47;10.50;99.90
4429;DHT22;2227;47.810;8.810;2022-11-03T16:23:13;10.50;99.90
4429;DHT22;2227;47.810;8.810;2022-11-03T16:25:40;10.60;99.90
4429;DHT22;2227;47.810;8.810;2022-11-03T16:28:07;10.60;99.90
4429;DHT22;2227;47.810;8.810;2022-11-03T16:30:34;10.60;99.90
4429;DHT22;2227;47.810;8.810;2022-11-03T16:33:01;10.60;99.90
4429;DHT22;2227;47.810;8.810;2022-11-03T16:35:27;10.50;99.90
4429;DHT22;2227;47.810;8.810;2022-11-03T16:37:55;10.60;99.90
4429;DHT22;2227;47.810;8.810;2022-11-03T16:40:22;10.60;99.90
4429;DHT22;2227;47.810;8.810;2022-11-03T16:42:49;10.50;99.90
4429;DHT22;2227;47.810;8.810;2022-11-03T16:47:45;10.20;99.90
4429;DHT22;2227;47.810;8.810;2022-11-03T16:50:13;10.20;99.90
4429;DHT22;2227;47.810;8.810;2022-11-03T16:52:42;10.20;99.90
4429;DHT22;2227;47.810;8.810;2022-11-03T16:55:09;10.00;99.90
4429;DHT22;2227;47.810;8.810;2022-11-03T16:57:37;10.00;99.90
4429;DHT22;2227;47.810;8.810;2022-11-03T17:00:07;9.80;99.90
4429;DHT22;2227;47.810;8.810;2022-11-03T17:02:35;9.90;99.90
4429;DHT22;2227;47.810;8.810;2022-11-03T17:05:01;9.90;99.90
4429;DHT22;2227;47.810;8.810;2022-11-03T17:07:29;9.90;99.90
4429;DHT22;2227;47.810;8.810;2022-11-03T17:09:56;9.80;99.90
4429;DHT22;2227;47.810;8.810;2022-11-03T17:12:22;9.90;99.90
4429;DHT22;2227;47.810;8.810;2022-11-03T17:14:49;10.00;99.90
4429;DHT22;2227;47.810;8.810;2022-11-03T17:17:22;10.10;99.90
4429;DHT22;2227;47.810;8.810;2022-11-03T17:19:48;10.20;99.90
4429;DHT22;2227;47.810;8.810;2022-11-03T17:22:15;10.20;99.90
4429;DHT22;2227;47.810;8.810;2022-11-03T17:24:42;10.20;99.90
4429;DHT22;2227;47.810;8.810;2022-11-03T17:30:33;10.30;99.90
4429;DHT22;2227;47.810;8.810;2022-11-03T17:33:05;10.20;99.90
4429;DHT22;2227;47.810;8.810;2022-11-03T17:35:34;9.90;99.90
4429;DHT22;2227;47.810;8.810;2022-11-03T17:38:10;9.80;99.90
4429;DHT22;2227;47.810;8.810;2022-11-03T17:40:41;9.80;99.90
4429;DHT22;2227;47.810;8.810;2022-11-03T17:43:22;9.90;99.90
4429;DHT22;2227;47.810;8.810;2022-11-03T17:45:49;9.90;99.90
4429;DHT22;2227;47.810;8.810;2022-11-03T17:48:16;10.00;99.90
4429;DHT22;2227;47.810;8.810;2022-11-03T17:50:48;10.10;99.90
4429;DHT22;2227;47.810;8.810;2022-11-03T17:53:35;10.10;99.90
4429;DHT22;2227;47.810;8.810;2022-11-03T17:56:05;10.10;99.90
4429;DHT22;2227;47.810;8.810;2022-11-03T17:58:53;10.10;99.90
4429;DHT22;2227;47.810;8.810;2022-11-03T18:01:24;10.10;99.90
4429;DHT22;2227;47.810;8.810;2022-11-03T18:03:51;10.10;99.90
4429;DHT22;2227;47.810;8.810;2022-11-03T18:06:19;9.90;99.90
4429;DHT22;2227;47.810;8.810;2022-11-03T18:08:47;9.80;99.90
4429;DHT22;2227;47.810;8.810;2022-11-03T18:11:25;9.80;99.90
4429;DHT22;2227;47.810;8.810;2022-11-03T18:14:11;9.80;99.90
4429;DHT22;2227;47.810;8.810;2022-11-03T18:16:38;9.70;99.90
4429;DHT22;2227;47.810;8.810;2022-11-03T18:19:10;9.70;99.90
4429;DHT22;2227;47.810;8.810;2022-11-03T18:21:38;9.60;99.90
4429;DHT22;2227;47.810;8.810;2022-11-03T18:24:13;9.70;99.90
4429;DHT22;2227;47.810;8.810;2022-11-03T18:26:40;9.80;99.90
4429;DHT22;2227;47.810;8.810;2022-11-03T18:29:07;9.90;99.90
4429;DHT22;2227;47.810;8.810;2022-11-03T18:31:37;10.00;99.90
4429;DHT22;2227;47.810;8.810;2022-11-03T18:34:16;10.00;99.90
4429;DHT22;2227;47.810;8.810;2022-11-03T18:36:44;10.10;99.90
4429;DHT22;2227;47.810;8.810;2022-11-03T18:39:20;10.00;99.90
4429;DHT22;2227;47.810;8.810;2022-11-03T18:41:47;10.00;99.90
4429;DHT22;2227;47.810;8.810;2022-11-03T18:44:15;10.00;99.90
4429;DHT22;2227;47.810;8.810;2022-11-03T18:46:43;10.10;99.90
4429;DHT22;2227;47.810;8.810;2022-11-03T18:49:09;10.00;99.90
4429;DHT22;2227;47.810;8.810;2022-11-03T18:51:36;9.90;99.90
4429;DHT22;2227;47.810;8.810;2022-11-03T18:54:03;9.80;99.90
4429;DHT22;2227;47.810;8.810;2022-11-03T18:56:31;9.80;99.90
4429;DHT22;2227;47.810;8.810;2022-11-03T18:59:03;9.80;99.90
4429;DHT22;2227;47.810;8.810;2022-11-03T19:01:30;9.80;99.90
4429;DHT22;2227;47.810;8.810;2022-11-03T19:03:57;9.90;99.90
4429;DHT22;2227;47.810;8.810;2022-11-03T19:06:24;9.90;99.90
4429;DHT22;2227;47.810;8.810;2022-11-03T19:08:56;9.90;99.90
4429;DHT22;2227;47.810;8.810;2022-11-03T19:11:25;9.70;99.90
4429;DHT22;2227;47.810;8.810;2022-11-03T19:13:52;9.70;99.90
4429;DHT22;2227;47.810;8.810;2022-11-03T19:16:21;9.60;99.90
4429;DHT22;2227;47.810;8.810;2022-11-03T19:18:49;9.60;99.90
4429;DHT22;2227;47.810;8.810;2022-11-03T19:21:20;9.60;99.90
4429;DHT22;2227;47.810;8.810;2022-11-03T19:23:49;9.70;99.90
4429;DHT22;2227;47.810;8.810;2022-11-03T19:26:26;9.70;99.90
4429;DHT22;2227;47.810;8.810;2022-11-03T19:28:57;9.80;99.90
4429;DHT22;2227;47.810;8.810;2022-11-03T19:31:39;9.90;99.90
4429;DHT22;2227;47.810;8.810;2022-11-03T19:34:13;9.90;99.90
4429;DHT22;2227;47.810;8.810;2022-11-03T19:36:41;9.90;99.90
4429;DHT22;2227;47.810;8.810;2022-11-03T19:39:30;10.00;99.90
4429;DHT22;2227;47.810;8.810;2022-11-03T19:42:02;9.80;99.90
4429;DHT22;2227;47.810;8.810;2022-11-03T19:44:50;9.80;99.90
4429;DHT22;2227;47.810;8.810;2022-11-03T19:47:18;9.80;99.90
4429;DHT22;2227;47.810;8.810;2022-11-03T19:49:45;9.80;99.90
4429;DHT22;2227;47.810;8.810;2022-11-03T19:52:16;9.70;99.90
4429;DHT22;2227;47.810;8.810;2022-11-03T19:54:46;9.70;99.90
4429;DHT22;2227;47.810;8.810;2022-11-03T19:57:14;9.60;99.90
4429;DHT22;2227;47.810;8.810;2022-11-03T19:59:43;9.60;99.90
4429;DHT22;2227;47.810;8.810;2022-11-03T20:02:11;9.60;99.90
4429;DHT22;2227;47.810;8.810;2022-11-03T20:04:38;9.60;99.90
4429;DHT22;2227;47.810;8.810;2022-11-03T20:07:07;9.50;99.90
4429;DHT22;2227;47.810;8.810;2022-11-03T20:09:36;9.60;99.90
4429;DHT22;2227;47.810;8.810;2022-11-03T20:12:04;9.60;99.90
4429;DHT22;2227;47.810;8.810;2022-11-03T20:14:33;9.60;99.90
4429;DHT22;2227;47.810;8.810;2022-11-03T20:17:14;9.70;99.90
4429;DHT22;2227;47.810;8.810;2022-11-03T20:19:43;9.80;99.90
4429;DHT22;2227;47.810;8.810;2022-11-03T20:22:13;9.80;99.90
4429;DHT22;2227;47.810;8.810;2022-11-03T20:24:42;9.90;99.90
4429;DHT22;2227;47.810;8.810;2022-11-03T20:27:10;9.90;99.90
4429;DHT22;2227;47.810;8.810;2022-11-03T20:29:38;10.00;99.90
4429;DHT22;2227;47.810;8.810;2022-11-03T20:32:05;10.00;99.90
4429;DHT22;2227;47.810;8.810;2022-11-03T20:34:32;10.00;99.90
4429;DHT22;2227;47.810;8.810;2022-11-03T20:36:59;10.00;99.90
4429;DHT22;2227;47.810;8.810;2022-11-03T20:39:31;9.90;99.90
4429;DHT22;2227;47.810;8.810;2022-11-03T20:41:58;9.90;99.90
4429;DHT22;2227;47.810;8.810;2022-11-03T20:44:25;9.90;99.90
4429;DHT22;2227;47.810;8.810;2022-11-03T20:46:51;9.90;99.90
4429;DHT22;2227;47.810;8.810;2022-11-03T20:49:18;10.00;99.90
4429;DHT22;2227;47.810;8.810;2022-11-03T20:51:47;10.00;99.90
4429;DHT22;2227;47.810;8.810;2022-11-03T20:54:14;10.10;99.90
4429;DHT22;2227;47.810;8.810;2022-11-03T20:56:42;10.10;99.90
4429;DHT22;2227;47.810;8.810;2022-11-03T20:59:13;10.10;99.90
4429;DHT22;2227;47.810;8.810;2022-11-03T21:01:42;10.20;99.90
4429;DHT22;2227;47.810;8.810;2022-11-03T21:04:14;10.40;99.90
4429;DHT22;2227;47.810;8.810;2022-11-03T21:06:42;10.50;99.90
4429;DHT22;2227;47.810;8.810;2022-11-03T21:09:14;10.50;99.90
4429;DHT22;2227;47.810;8.810;2022-11-03T21:11:41;10.50;99.90
4429;DHT22;2227;47.810;8.810;2022-11-03T21:16:40;10.50;99.90
4429;DHT22;2227;47.810;8.810;2022-11-03T21:19:29;10.60;99.90
4429;DHT22;2227;47.810;8.810;2022-11-03T21:25:01;10.40;99.90
4429;DHT22;2227;47.810;8.810;2022-11-03T21:27:28;10.50;99.90
4429;DHT22;2227;47.810;8.810;2022-11-03T21:29:54;10.70;99.90
4429;DHT22;2227;47.810;8.810;2022-11-03T21:32:25;10.70;99.90
4429;DHT22;2227;47.810;8.810;2022-11-03T21:34:52;10.70;99.90
4429;DHT22;2227;47.810;8.810;2022-11-03T21:37:19;10.80;99.90
4429;DHT22;2227;47.810;8.810;2022-11-03T21:39:46;10.90;99.90
4429;DHT22;2227;47.810;8.810;2022-11-03T21:42:14;11.00;99.90
4429;DHT22;2227;47.810;8.810;2022-11-03T21:44:59;11.10;99.90
4429;DHT22;2227;47.810;8.810;2022-11-03T21:47:26;11.20;99.90
4429;DHT22;2227;47.810;8.810;2022-11-03T21:49:53;11.20;99.90
4429;DHT22;2227;47.810;8.810;2022-11-03T21:52:21;11.20;99.90
4429;DHT22;2227;47.810;8.810;2022-11-03T21:55:01;11.20;99.90
4429;DHT22;2227;47.810;8.810;2022-11-03T21:57:28;11.20;99.90
4429;DHT22;2227;47.810;8.810;2022-11-03T21:59:55;11.10;99.90
4429;DHT22;2227;47.810;8.810;2022-11-03T22:02:26;11.10;99.90
4429;DHT22;2227;47.810;8.810;2022-11-03T22:04:55;11.20;99.90
4429;DHT22;2227;47.810;8.810;2022-11-03T22:07:22;11.20;99.90
4429;DHT22;2227;47.810;8.810;2022-11-03T22:09:49;11.20;99.90
4429;DHT22;2227;47.810;8.810;2022-11-03T22:12:16;11.30;99.90
4429;DHT22;2227;47.810;8.810;2022-11-03T22:14:42;11.20;99.90
4429;DHT22;2227;47.810;8.810;2022-11-03T22:17:28;11.20;99.90
4429;DHT22;2227;47.810;8.810;2022-11-03T22:19:54;11.20;99.90
4429;DHT22;2227;47.810;8.810;2022-11-03T22:22:40;11.10;99.90
4429;DHT22;2227;47.810;8.810;2022-11-03T22:25:25;11.10;99.90
4429;DHT22;2227;47.810;8.810;2022-11-03T22:28:10;11.20;99.90